createdAt,value
2022-12-27T00:00:14.207Z,4.20
2022-12-27T00:03:15.911Z,4.20
2022-12-27T00:06:20.982Z,4.20
2022-12-27T00:09:23.011Z,4.10
2022-12-27T00:12:24.704Z,4.10
2022-12-27T00:15:26.333Z,4.00
2022-12-27T00:18:28.084Z,4.00
2022-12-27T00:21:29.841Z,4.00
2022-12-27T00:24:31.490Z,3.90
2022-12-27T00:27:33.355Z,4.00
2022-12-27T00:30:35.030Z,4.00
2022-12-27T00:33:37.289Z,4.00
2022-12-27T00:36:38.928Z,3.90
2022-12-27T00:39:40.832Z,3.90
2022-12-27T00:42:42.472Z,3.90
2022-12-27T00:45:44.303Z,3.90
2022-12-27T00:48:46.258Z,3.90
2022-12-27T00:51:47.904Z,3.90
2022-12-27T00:54:49.539Z,3.80
2022-12-27T00:57:51.392Z,3.70
2022-12-27T01:00:53.157Z,3.70
2022-12-27T01:03:54.997Z,3.70
2022-12-27T01:06:56.635Z,3.70
2022-12-27T01:09:58.279Z,3.60
2022-12-27T01:13:03.399Z,3.60
2022-12-27T01:16:10.024Z,3.60
2022-12-27T01:19:13.846Z,3.60
2022-12-27T01:22:15.494Z,3.60
2022-12-27T01:25:17.194Z,3.50
2022-12-27T01:28:18.959Z,3.50
2022-12-27T01:31:23.030Z,3.50
2022-12-27T01:34:24.707Z,3.50
2022-12-27T01:37:28.938Z,3.50
2022-12-27T01:40:30.557Z,3.50
2022-12-27T01:43:38.532Z,3.50
2022-12-27T01:46:40.158Z,3.50
2022-12-27T01:50:07.050Z,3.50
2022-12-27T01:53:10.447Z,3.50
2022-12-27T01:56:19.447Z,3.50
2022-12-27T01:59:21.101Z,3.60
2022-12-27T06:26:55.275Z,4.30
2022-12-27T06:29:56.915Z,4.40
2022-12-27T06:32:58.590Z,4.50
2022-12-27T06:36:06.123Z,4.50
2022-12-27T06:39:07.797Z,4.70
2022-12-27T06:42:09.457Z,4.70
2022-12-27T06:45:11.127Z,4.80
2022-12-27T06:48:12.815Z,4.80
2022-12-27T06:51:15.193Z,4.90
2022-12-27T06:54:16.911Z,4.90
2022-12-27T06:57:18.709Z,4.90
2022-12-27T07:00:20.778Z,5.00
2022-12-27T07:03:22.473Z,5.00
2022-12-27T07:06:24.951Z,5.00
2022-12-27T07:09:26.637Z,5.00
2022-12-27T07:12:31.811Z,5.00
2022-12-27T07:15:38.414Z,5.00
2022-12-27T07:18:40.165Z,5.00
2022-12-27T07:21:41.803Z,5.10
2022-12-27T07:24:43.603Z,5.20
2022-12-27T07:27:45.232Z,5.30
2022-12-27T07:30:46.878Z,5.30
2022-12-27T07:33:48.522Z,5.30
2022-12-27T07:36:50.339Z,5.30
2022-12-27T07:39:51.999Z,5.30
2022-12-27T07:42:53.628Z,5.40
2022-12-27T07:45:55.332Z,5.50
2022-12-27T07:48:57.577Z,5.50
2022-12-27T07:51:59.456Z,5.50
2022-12-27T07:55:01.104Z,5.60
2022-12-27T07:58:02.809Z,5.60
2022-12-27T08:01:04.643Z,5.70
2022-12-27T08:04:06.330Z,5.70
2022-12-27T08:07:16.237Z,5.80
2022-12-27T08:10:18.009Z,5.80
2022-12-27T08:13:19.819Z,5.80
2022-12-27T08:16:23.620Z,5.80
2022-12-27T08:19:25.271Z,5.90
2022-12-27T08:22:26.902Z,5.90
2022-12-27T08:25:28.971Z,6.00
2022-12-27T08:28:31.788Z,6.00
2022-12-27T08:31:33.511Z,6.00
2022-12-27T08:34:35.175Z,6.00
2022-12-27T08:37:36.880Z,6.10
2022-12-27T08:40:42.208Z,6.10
2022-12-27T08:43:43.848Z,6.10
2022-12-27T08:46:45.866Z,6.20
2022-12-27T08:49:47.489Z,6.30
2022-12-27T08:52:49.147Z,6.30
2022-12-27T08:55:51.090Z,6.40
2022-12-27T08:58:52.837Z,6.40
2022-12-27T09:01:54.675Z,6.50
2022-12-27T09:04:56.448Z,6.50
2022-12-27T09:07:58.377Z,6.50
2022-12-27T09:11:10.745Z,6.50
2022-12-27T09:14:12.417Z,6.50
2022-12-27T09:17:14.288Z,6.60
2022-12-27T09:20:15.955Z,6.60
2022-12-27T09:23:17.681Z,6.70
2022-12-27T09:26:24.096Z,6.80
2022-12-27T09:29:26.892Z,6.90
2022-12-27T09:32:28.547Z,7.00
2022-12-27T09:35:33.985Z,7.20
2022-12-27T09:38:38.894Z,7.30
2022-12-27T09:45:40.371Z,7.50
2022-12-27T09:48:42.029Z,7.70
2022-12-27T09:51:47.074Z,7.80
2022-12-27T09:55:05.180Z,7.90
2022-12-27T09:58:42.808Z,8.00
2022-12-27T10:01:44.827Z,8.00
2022-12-27T10:05:18.601Z,8.00
2022-12-27T10:08:10.918Z,8.00
2022-12-27T10:11:36.237Z,8.00
2022-12-27T10:15:03.643Z,7.90
2022-12-27T10:18:25.417Z,7.80
2022-12-27T10:21:27.544Z,7.80
2022-12-27T10:24:53.482Z,7.80
2022-12-27T10:28:09.208Z,7.80
2022-12-27T10:31:18.454Z,7.80
2022-12-27T10:34:24.643Z,7.80
2022-12-27T10:37:26.913Z,7.80
2022-12-27T10:41:05.239Z,8.00
2022-12-27T10:44:17.264Z,8.00
2022-12-27T10:47:19.217Z,8.10
2022-12-27T10:50:20.862Z,8.20
2022-12-27T10:53:47.612Z,8.20
2022-12-27T10:56:49.599Z,8.30
2022-12-27T11:00:13.182Z,8.30
2022-12-27T11:03:18.914Z,8.40
2022-12-27T11:06:23.647Z,8.40
2022-12-27T11:09:33.054Z,8.50
2022-12-27T11:12:36.157Z,8.50
2022-12-27T11:15:42.083Z,8.60
2022-12-27T11:18:47.002Z,8.60
2022-12-27T11:21:48.648Z,8.60
2022-12-27T11:24:51.009Z,8.80
2022-12-27T11:27:58.348Z,8.90
2022-12-27T11:31:01.969Z,8.90
2022-12-27T11:34:15.262Z,8.90
2022-12-27T11:37:19.167Z,9.00
2022-12-27T11:40:25.466Z,9.00
2022-12-27T11:43:27.758Z,9.00
2022-12-27T11:46:40.749Z,9.00
2022-12-27T11:49:53.690Z,8.90
2022-12-27T11:53:20.576Z,8.80
2022-12-27T11:56:34.659Z,8.80
2022-12-27T11:59:39.282Z,8.90
2022-12-27T12:02:47.085Z,8.90
2022-12-27T12:06:17.735Z,9.00
2022-12-27T12:09:34.467Z,9.10
2022-12-27T12:13:03.064Z,9.20
2022-12-27T12:16:44.263Z,9.20
2022-12-27T12:20:23.306Z,9.30
2022-12-27T12:23:36.290Z,9.40
2022-12-27T12:27:03.897Z,9.50
2022-12-27T12:30:13.470Z,9.60
2022-12-27T12:33:24.320Z,9.60
2022-12-27T12:36:52.302Z,9.60
2022-12-27T12:40:18.515Z,9.60
2022-12-27T12:43:41.849Z,9.60
2022-12-27T12:47:08.746Z,9.50
2022-12-27T12:50:40.496Z,9.50
2022-12-27T12:54:05.181Z,9.50
2022-12-27T12:57:23.853Z,9.60
2022-12-27T13:00:55.690Z,9.70
2022-12-27T13:04:12.867Z,9.70
2022-12-27T13:07:30.419Z,9.70
2022-12-27T13:10:51.733Z,9.70
2022-12-27T13:14:02.245Z,9.70
2022-12-27T13:17:27.331Z,9.70
2022-12-27T13:20:48.912Z,9.70
2022-12-27T13:23:50.463Z,9.70
2022-12-27T13:27:05.527Z,9.70
2022-12-27T13:30:43.019Z,9.60
2022-12-27T13:33:47.351Z,9.70
2022-12-27T13:37:17.044Z,9.70
2022-12-27T13:40:49.783Z,9.70
2022-12-27T13:44:22.497Z,9.80
2022-12-27T13:47:48.575Z,9.80
2022-12-27T13:51:11.177Z,9.90
2022-12-27T13:54:37.070Z,10.00
2022-12-27T13:58:04.211Z,10.00
2022-12-27T14:01:30.086Z,10.10
2022-12-27T14:04:43.057Z,10.20
2022-12-27T14:08:38.765Z,10.10
2022-12-27T14:12:01.781Z,10.10
2022-12-27T14:15:05.367Z,10.00
2022-12-27T14:18:12.936Z,10.00
2022-12-27T14:21:29.643Z,10.00
2022-12-27T14:25:15.032Z,10.00
2022-12-27T14:28:47.785Z,10.00
2022-12-27T14:32:27.638Z,9.90
2022-12-27T14:35:51.729Z,9.80
2022-12-27T14:38:59.108Z,9.80
2022-12-27T14:42:06.554Z,9.80
2022-12-27T14:45:30.032Z,9.70
2022-12-27T14:49:09.145Z,9.70
2022-12-27T14:52:38.579Z,9.80
2022-12-27T14:55:43.499Z,9.80
2022-12-27T14:58:57.120Z,9.80
2022-12-27T15:01:59.099Z,9.80
2022-12-27T15:05:12.838Z,9.80
2022-12-27T15:08:26.201Z,9.70
2022-12-27T15:11:40.549Z,9.60
2022-12-27T15:15:00.705Z,9.60
2022-12-27T15:18:11.819Z,9.50
2022-12-27T15:21:21.857Z,9.40
2022-12-27T15:24:38.701Z,9.40
2022-12-27T15:28:09.443Z,9.40
2022-12-27T15:31:36.476Z,9.40
2022-12-27T15:34:43.297Z,9.40
2022-12-27T15:37:48.134Z,9.40
2022-12-27T15:41:09.214Z,9.40
2022-12-27T15:44:29.993Z,9.40
2022-12-27T15:47:52.770Z,9.40
2022-12-27T15:50:59.936Z,9.40
2022-12-27T15:54:23.737Z,9.40
2022-12-27T15:58:03.539Z,9.40
2022-12-27T16:01:23.850Z,9.40
2022-12-27T16:04:47.675Z,9.40
2022-12-27T16:07:58.841Z,9.40
2022-12-27T16:11:01.944Z,9.30
2022-12-27T16:14:24.318Z,9.20
2022-12-27T16:17:34.767Z,9.20
2022-12-27T16:20:36.421Z,9.20
2022-12-27T16:23:46.927Z,9.20
2022-12-27T16:26:57.437Z,9.20
2022-12-27T16:29:59.223Z,9.20
2022-12-27T16:33:01.065Z,9.20
2022-12-27T16:36:05.350Z,9.20
2022-12-27T16:39:44.445Z,9.20
2022-12-27T16:42:58.077Z,9.10
2022-12-27T16:46:29.458Z,9.00
2022-12-27T16:49:41.928Z,9.00
2022-12-27T16:53:07.705Z,9.00
2022-12-27T16:56:20.046Z,9.00
2022-12-27T16:59:57.759Z,9.00
2022-12-27T17:03:22.482Z,9.00
2022-12-27T17:06:33.548Z,9.00
2022-12-27T17:09:39.819Z,9.00
2022-12-27T17:12:41.488Z,9.00
2022-12-27T17:16:01.623Z,9.00
2022-12-27T17:19:07.582Z,9.00
2022-12-27T17:22:13.192Z,9.00
2022-12-27T17:25:15.910Z,9.00
2022-12-27T17:28:24.267Z,9.00
2022-12-27T17:31:35.529Z,9.00
2022-12-27T17:35:01.641Z,9.00
2022-12-27T17:38:09.349Z,9.00
2022-12-27T17:41:44.528Z,8.90
2022-12-27T17:45:03.512Z,8.90
2022-12-27T17:48:40.817Z,8.80
2022-12-27T17:52:03.573Z,8.70
2022-12-27T17:55:41.917Z,8.60
2022-12-27T17:58:43.590Z,8.60
2022-12-27T18:01:50.019Z,8.60
2022-12-27T18:04:53.126Z,8.60
2022-12-27T18:08:02.653Z,8.60
2022-12-27T18:11:04.977Z,8.60
2022-12-27T18:14:06.619Z,8.50
2022-12-27T18:17:26.793Z,8.50
2022-12-27T18:20:37.182Z,8.50
2022-12-27T18:23:40.645Z,8.50
2022-12-27T18:26:42.290Z,8.50
2022-12-27T18:29:44.062Z,8.50
2022-12-27T18:32:45.730Z,8.50
2022-12-27T18:35:49.901Z,8.50
2022-12-27T18:39:00.162Z,8.40
2022-12-27T18:42:37.386Z,8.40
2022-12-27T18:45:39.432Z,8.40
2022-12-27T18:48:41.086Z,8.40
2022-12-27T18:51:43.092Z,8.40
2022-12-27T18:54:44.729Z,8.30
2022-12-27T18:57:46.861Z,8.30
2022-12-27T19:00:50.562Z,8.20
2022-12-27T19:04:17.175Z,8.10
2022-12-27T19:07:18.869Z,8.10
2022-12-27T19:10:22.890Z,8.10
2022-12-27T19:13:29.350Z,8.10
2022-12-27T19:16:34.278Z,8.00
2022-12-27T19:19:35.989Z,8.00
2022-12-27T19:22:41.350Z,8.00
2022-12-27T19:25:44.107Z,8.00
2022-12-27T19:28:46.333Z,8.00
2022-12-27T19:31:59.508Z,8.00
2022-12-27T19:35:02.041Z,8.10
2022-12-27T19:38:04.127Z,8.10
2022-12-27T19:41:06.784Z,8.10
2022-12-27T19:44:09.823Z,8.10
2022-12-27T19:47:14.555Z,8.10
2022-12-27T19:50:16.846Z,8.20
2022-12-27T19:53:24.842Z,8.10
2022-12-27T19:56:27.133Z,8.20
2022-12-27T19:59:28.788Z,8.20
2022-12-27T20:02:30.551Z,8.20
2022-12-27T20:06:12.825Z,8.20
2022-12-27T20:08:55.016Z,8.20
2022-12-27T20:11:56.683Z,8.20
2022-12-27T20:14:58.413Z,8.30
2022-12-27T20:18:00.138Z,8.30
2022-12-27T20:21:01.849Z,8.30
2022-12-27T20:24:03.636Z,8.30
2022-12-27T20:27:05.497Z,8.30
2022-12-27T20:30:07.739Z,8.40
2022-12-27T20:33:09.762Z,8.40
2022-12-27T20:36:11.776Z,8.40
2022-12-27T20:39:13.490Z,8.40
2022-12-27T20:42:15.144Z,8.40
2022-12-27T20:45:17.026Z,8.40
2022-12-27T20:48:18.700Z,8.40
2022-12-27T20:51:25.326Z,8.40
2022-12-27T20:54:27.164Z,8.40
2022-12-27T20:57:29.083Z,8.40
2022-12-27T21:00:30.720Z,8.40
2022-12-27T21:03:32.448Z,8.40
2022-12-27T21:06:34.423Z,8.40
2022-12-27T21:09:36.101Z,8.40
2022-12-27T21:12:38.171Z,8.40
2022-12-27T21:15:42.588Z,8.40
2022-12-27T21:18:44.555Z,8.40
2022-12-27T21:21:46.203Z,8.40
2022-12-27T21:24:47.829Z,8.40
2022-12-27T21:27:49.520Z,8.50
2022-12-27T21:30:57.488Z,8.40
2022-12-27T21:33:59.601Z,8.50
2022-12-27T21:37:07.396Z,8.40
2022-12-27T21:40:12.224Z,8.40
2022-12-27T21:43:13.882Z,8.40
2022-12-27T21:46:25.800Z,8.40
2022-12-27T21:49:27.487Z,8.40
2022-12-27T21:52:29.130Z,8.40
2022-12-27T21:55:30.791Z,8.40
2022-12-27T21:58:33.444Z,8.40
2022-12-27T22:01:51.361Z,8.40
2022-12-27T22:04:54.219Z,8.40
2022-12-27T22:07:56.116Z,8.40
2022-12-27T22:10:57.756Z,8.40
2022-12-27T22:13:59.481Z,8.40
2022-12-27T22:17:03.117Z,8.40
2022-12-27T22:20:05.200Z,8.40
2022-12-27T22:23:07.817Z,8.40
2022-12-27T22:26:14.535Z,8.40
2022-12-27T22:29:16.270Z,8.50
2022-12-27T22:32:17.915Z,8.50
2022-12-27T22:35:19.561Z,8.50
2022-12-27T22:38:21.199Z,8.50
2022-12-27T22:41:26.062Z,8.60
2022-12-27T22:44:27.713Z,8.60
2022-12-27T22:47:29.568Z,8.60
2022-12-27T22:50:31.284Z,8.60
2022-12-27T22:53:32.964Z,8.60
2022-12-27T22:56:36.495Z,8.70
2022-12-27T22:59:38.052Z,8.70
2022-12-27T23:02:39.798Z,8.80
2022-12-27T23:05:41.620Z,8.80
2022-12-27T23:08:43.918Z,8.90
